sensor_id;sensor_type;location;lat;lon;timestamp;temperature;humidity
12922;DHT22;6528;48.086;16.282;2022-08-24T00:00:31;18.60;99.90
12922;DHT22;6528;48.086;16.282;2022-08-24T00:03:00;18.60;99.90
12922;DHT22;6528;48.086;16.282;2022-08-24T00:05:27;18.60;99.90
12922;DHT22;6528;48.086;16.282;2022-08-24T00:07:54;18.60;99.90
12922;DHT22;6528;48.086;16.282;2022-08-24T00:10:20;18.60;99.90
12922;DHT22;6528;48.086;16.282;2022-08-24T00:12:47;18.60;99.90
12922;DHT22;6528;48.086;16.282;2022-08-24T00:15:15;18.60;99.90
12922;DHT22;6528;48.086;16.282;2022-08-24T00:17:43;18.60;99.90
12922;DHT22;6528;48.086;16.282;2022-08-24T00:20:11;18.60;99.90
12922;DHT22;6528;48.086;16.282;2022-08-24T00:22:38;18.60;99.90
12922;DHT22;6528;48.086;16.282;2022-08-24T00:25:08;18.70;99.90
12922;DHT22;6528;48.086;16.282;2022-08-24T00:27:35;18.70;99.90
12922;DHT22;6528;48.086;16.282;2022-08-24T00:30:05;18.70;99.90
12922;DHT22;6528;48.086;16.282;2022-08-24T00:32:32;18.70;99.90
12922;DHT22;6528;48.086;16.282;2022-08-24T00:34:59;18.70;99.90
12922;DHT22;6528;48.086;16.282;2022-08-24T00:37:27;18.70;99.90
12922;DHT22;6528;48.086;16.282;2022-08-24T00:39:54;18.80;99.90
12922;DHT22;6528;48.086;16.282;2022-08-24T00:42:22;18.70;99.90
12922;DHT22;6528;48.086;16.282;2022-08-24T00:44:49;18.80;99.90
12922;DHT22;6528;48.086;16.282;2022-08-24T00:47:20;18.80;99.90
12922;DHT22;6528;48.086;16.282;2022-08-24T00:50:04;18.80;99.90
12922;DHT22;6528;48.086;16.282;2022-08-24T00:52:41;18.80;99.90
12922;DHT22;6528;48.086;16.282;2022-08-24T00:55:14;18.80;99.90
12922;DHT22;6528;48.086;16.282;2022-08-24T00:57:47;18.80;99.90
12922;DHT22;6528;48.086;16.282;2022-08-24T01:00:21;18.80;99.90
12922;DHT22;6528;48.086;16.282;2022-08-24T01:02:53;18.90;99.90
12922;DHT22;6528;48.086;16.282;2022-08-24T01:05:24;18.90;99.90
12922;DHT22;6528;48.086;16.282;2022-08-24T01:07:51;18.90;99.90
12922;DHT22;6528;48.086;16.282;2022-08-24T01:10:23;18.90;99.90
12922;DHT22;6528;48.086;16.282;2022-08-24T01:12:54;18.90;99.90
12922;DHT22;6528;48.086;16.282;2022-08-24T01:15:28;19.00;99.90
12922;DHT22;6528;48.086;16.282;2022-08-24T01:17:56;19.00;99.90
12922;DHT22;6528;48.086;16.282;2022-08-24T01:20:43;19.00;99.90
12922;DHT22;6528;48.086;16.282;2022-08-24T01:23:37;19.00;99.90
12922;DHT22;6528;48.086;16.282;2022-08-24T01:26:06;19.00;99.90
12922;DHT22;6528;48.086;16.282;2022-08-24T01:28:36;19.00;99.90
12922;DHT22;6528;48.086;16.282;2022-08-24T01:31:06;18.90;99.90
12922;DHT22;6528;48.086;16.282;2022-08-24T01:33:33;18.90;99.90
12922;DHT22;6528;48.086;16.282;2022-08-24T01:36:05;18.90;99.90
12922;DHT22;6528;48.086;16.282;2022-08-24T01:38:35;18.90;99.90
12922;DHT22;6528;48.086;16.282;2022-08-24T01:41:03;18.90;99.90
12922;DHT22;6528;48.086;16.282;2022-08-24T01:43:30;18.90;99.90
12922;DHT22;6528;48.086;16.282;2022-08-24T01:46:00;18.90;99.90
12922;DHT22;6528;48.086;16.282;2022-08-24T01:48:27;18.90;99.90
12922;DHT22;6528;48.086;16.282;2022-08-24T01:50:54;18.90;99.90
12922;DHT22;6528;48.086;16.282;2022-08-24T01:53:20;18.90;99.90
12922;DHT22;6528;48.086;16.282;2022-08-24T01:55:47;18.90;99.90
12922;DHT22;6528;48.086;16.282;2022-08-24T01:58:14;18.90;99.90
12922;DHT22;6528;48.086;16.282;2022-08-24T02:00:42;18.90;99.90
12922;DHT22;6528;48.086;16.282;2022-08-24T02:03:10;18.90;99.90
12922;DHT22;6528;48.086;16.282;2022-08-24T02:05:37;18.90;99.90
12922;DHT22;6528;48.086;16.282;2022-08-24T02:08:04;18.90;99.90
12922;DHT22;6528;48.086;16.282;2022-08-24T02:10:32;19.00;99.90
12922;DHT22;6528;48.086;16.282;2022-08-24T02:12:59;19.00;99.90
12922;DHT22;6528;48.086;16.282;2022-08-24T02:15:35;19.00;99.90
12922;DHT22;6528;48.086;16.282;2022-08-24T02:18:08;19.00;99.90
12922;DHT22;6528;48.086;16.282;2022-08-24T02:20:41;18.90;99.90
12922;DHT22;6528;48.086;16.282;2022-08-24T02:23:08;19.00;99.90
12922;DHT22;6528;48.086;16.282;2022-08-24T02:25:35;19.00;99.90
12922;DHT22;6528;48.086;16.282;2022-08-24T02:28:02;19.00;99.90
12922;DHT22;6528;48.086;16.282;2022-08-24T02:30:30;19.00;99.90
12922;DHT22;6528;48.086;16.282;2022-08-24T02:32:58;19.00;99.90
12922;DHT22;6528;48.086;16.282;2022-08-24T02:35:26;19.00;99.90
12922;DHT22;6528;48.086;16.282;2022-08-24T02:37:53;19.00;99.90
12922;DHT22;6528;48.086;16.282;2022-08-24T02:40:21;19.00;99.90
12922;DHT22;6528;48.086;16.282;2022-08-24T02:42:47;18.90;99.90
12922;DHT22;6528;48.086;16.282;2022-08-24T02:45:14;19.00;99.90
12922;DHT22;6528;48.086;16.282;2022-08-24T02:47:41;18.90;99.90
12922;DHT22;6528;48.086;16.282;2022-08-24T02:50:11;19.00;99.90
12922;DHT22;6528;48.086;16.282;2022-08-24T02:52:40;18.90;99.90
12922;DHT22;6528;48.086;16.282;2022-08-24T02:55:10;19.00;99.90
12922;DHT22;6528;48.086;16.282;2022-08-24T02:57:38;19.00;99.90
12922;DHT22;6528;48.086;16.282;2022-08-24T03:00:09;19.00;99.90
12922;DHT22;6528;48.086;16.282;2022-08-24T03:02:36;19.00;99.90
12922;DHT22;6528;48.086;16.282;2022-08-24T03:05:04;19.00;99.90
12922;DHT22;6528;48.086;16.282;2022-08-24T03:07:31;19.00;99.90
12922;DHT22;6528;48.086;16.282;2022-08-24T03:09:58;19.00;99.90
12922;DHT22;6528;48.086;16.282;2022-08-24T03:12:25;19.00;99.90
12922;DHT22;6528;48.086;16.282;2022-08-24T03:14:52;19.00;99.90
12922;DHT22;6528;48.086;16.282;2022-08-24T03:17:19;19.00;99.90
12922;DHT22;6528;48.086;16.282;2022-08-24T03:19:45;19.00;99.90
12922;DHT22;6528;48.086;16.282;2022-08-24T03:22:12;19.00;99.90
12922;DHT22;6528;48.086;16.282;2022-08-24T03:24:39;19.00;99.90
12922;DHT22;6528;48.086;16.282;2022-08-24T03:27:06;19.00;99.90
12922;DHT22;6528;48.086;16.282;2022-08-24T03:29:34;19.00;99.90
12922;DHT22;6528;48.086;16.282;2022-08-24T03:32:02;19.10;99.90
12922;DHT22;6528;48.086;16.282;2022-08-24T03:34:29;19.10;99.90
12922;DHT22;6528;48.086;16.282;2022-08-24T03:36:56;19.00;99.90
12922;DHT22;6528;48.086;16.282;2022-08-24T03:39:23;19.00;99.90
12922;DHT22;6528;48.086;16.282;2022-08-24T03:41:50;19.00;99.90
12922;DHT22;6528;48.086;16.282;2022-08-24T03:44:17;19.00;99.90
12922;DHT22;6528;48.086;16.282;2022-08-24T03:46:48;19.00;99.90
12922;DHT22;6528;48.086;16.282;2022-08-24T03:49:15;18.90;99.90
12922;DHT22;6528;48.086;16.282;2022-08-24T03:51:42;18.90;99.90
12922;DHT22;6528;48.086;16.282;2022-08-24T03:54:10;18.90;99.90
12922;DHT22;6528;48.086;16.282;2022-08-24T03:56:39;18.90;99.90
12922;DHT22;6528;48.086;16.282;2022-08-24T03:59:06;18.90;99.90
12922;DHT22;6528;48.086;16.282;2022-08-24T04:01:35;18.90;99.90
12922;DHT22;6528;48.086;16.282;2022-08-24T04:04:03;18.90;99.90
12922;DHT22;6528;48.086;16.282;2022-08-24T04:06:30;18.80;99.90
12922;DHT22;6528;48.086;16.282;2022-08-24T04:08:57;18.80;99.90
12922;DHT22;6528;48.086;16.282;2022-08-24T04:11:26;18.80;99.90
12922;DHT22;6528;48.086;16.282;2022-08-24T04:13:55;18.80;99.90
12922;DHT22;6528;48.086;16.282;2022-08-24T04:16:23;18.70;99.90
12922;DHT22;6528;48.086;16.282;2022-08-24T04:18:50;18.70;99.90
12922;DHT22;6528;48.086;16.282;2022-08-24T04:21:22;18.70;99.90
12922;DHT22;6528;48.086;16.282;2022-08-24T04:23:51;18.70;99.90
12922;DHT22;6528;48.086;16.282;2022-08-24T04:26:20;18.80;99.90
12922;DHT22;6528;48.086;16.282;2022-08-24T04:29:09;18.80;99.90
12922;DHT22;6528;48.086;16.282;2022-08-24T04:31:38;18.80;99.90
12922;DHT22;6528;48.086;16.282;2022-08-24T04:34:06;18.80;99.90
12922;DHT22;6528;48.086;16.282;2022-08-24T04:36:33;18.80;99.90
12922;DHT22;6528;48.086;16.282;2022-08-24T04:39:00;18.80;99.90
12922;DHT22;6528;48.086;16.282;2022-08-24T04:41:28;18.80;99.90
12922;DHT22;6528;48.086;16.282;2022-08-24T04:43:57;18.80;99.90
12922;DHT22;6528;48.086;16.282;2022-08-24T04:46:25;18.80;99.90
12922;DHT22;6528;48.086;16.282;2022-08-24T04:48:51;18.90;99.90
12922;DHT22;6528;48.086;16.282;2022-08-24T04:51:19;18.90;99.90
12922;DHT22;6528;48.086;16.282;2022-08-24T04:53:47;18.90;99.90
12922;DHT22;6528;48.086;16.282;2022-08-24T04:56:19;18.90;99.90
12922;DHT22;6528;48.086;16.282;2022-08-24T04:58:46;18.90;99.90
12922;DHT22;6528;48.086;16.282;2022-08-24T05:01:17;18.90;99.90
12922;DHT22;6528;48.086;16.282;2022-08-24T05:03:48;18.90;99.90
12922;DHT22;6528;48.086;16.282;2022-08-24T05:06:18;19.00;99.90
12922;DHT22;6528;48.086;16.282;2022-08-24T05:08:46;19.00;99.90
12922;DHT22;6528;48.086;16.282;2022-08-24T05:11:16;19.00;99.90
12922;DHT22;6528;48.086;16.282;2022-08-24T05:13:44;19.00;99.90
12922;DHT22;6528;48.086;16.282;2022-08-24T05:16:16;19.10;99.90
12922;DHT22;6528;48.086;16.282;2022-08-24T05:18:46;19.10;99.90
12922;DHT22;6528;48.086;16.282;2022-08-24T05:21:16;19.20;99.90
12922;DHT22;6528;48.086;16.282;2022-08-24T05:23:44;19.20;99.90
12922;DHT22;6528;48.086;16.282;2022-08-24T05:26:20;19.30;99.90
12922;DHT22;6528;48.086;16.282;2022-08-24T05:28:47;19.30;99.90
12922;DHT22;6528;48.086;16.282;2022-08-24T05:31:15;19.40;99.90
12922;DHT22;6528;48.086;16.282;2022-08-24T05:33:43;19.50;99.90
12922;DHT22;6528;48.086;16.282;2022-08-24T05:36:18;19.50;99.90
12922;DHT22;6528;48.086;16.282;2022-08-24T05:38:46;19.60;99.90
12922;DHT22;6528;48.086;16.282;2022-08-24T05:41:14;19.60;99.90
12922;DHT22;6528;48.086;16.282;2022-08-24T05:43:42;19.70;99.90
12922;DHT22;6528;48.086;16.282;2022-08-24T05:46:09;19.70;99.90
12922;DHT22;6528;48.086;16.282;2022-08-24T05:48:36;19.70;99.90
12922;DHT22;6528;48.086;16.282;2022-08-24T05:51:04;19.80;99.90
12922;DHT22;6528;48.086;16.282;2022-08-24T05:53:32;19.80;99.90
12922;DHT22;6528;48.086;16.282;2022-08-24T05:56:07;19.90;99.90
12922;DHT22;6528;48.086;16.282;2022-08-24T05:58:35;19.90;99.90
12922;DHT22;6528;48.086;16.282;2022-08-24T06:01:13;19.90;99.90
12922;DHT22;6528;48.086;16.282;2022-08-24T06:03:40;20.00;99.90
12922;DHT22;6528;48.086;16.282;2022-08-24T06:06:09;20.10;99.90
12922;DHT22;6528;48.086;16.282;2022-08-24T06:08:38;20.20;99.90
12922;DHT22;6528;48.086;16.282;2022-08-24T06:11:08;20.20;99.90
12922;DHT22;6528;48.086;16.282;2022-08-24T06:13:35;20.30;99.90
12922;DHT22;6528;48.086;16.282;2022-08-24T06:16:10;20.30;99.90
12922;DHT22;6528;48.086;16.282;2022-08-24T06:18:48;20.40;99.90
12922;DHT22;6528;48.086;16.282;2022-08-24T06:21:19;20.40;99.90
12922;DHT22;6528;48.086;16.282;2022-08-24T06:23:47;20.50;99.90
12922;DHT22;6528;48.086;16.282;2022-08-24T06:26:14;20.60;99.90
12922;DHT22;6528;48.086;16.282;2022-08-24T06:28:59;20.60;99.90
12922;DHT22;6528;48.086;16.282;2022-08-24T06:31:27;20.70;99.90
12922;DHT22;6528;48.086;16.282;2022-08-24T06:34:05;20.70;99.90
12922;DHT22;6528;48.086;16.282;2022-08-24T06:36:31;20.80;99.90
12922;DHT22;6528;48.086;16.282;2022-08-24T06:38:58;20.80;99.90
12922;DHT22;6528;48.086;16.282;2022-08-24T06:41:26;20.90;99.90
12922;DHT22;6528;48.086;16.282;2022-08-24T06:43:53;21.10;99.90
12922;DHT22;6528;48.086;16.282;2022-08-24T06:46:20;21.20;99.90
12922;DHT22;6528;48.086;16.282;2022-08-24T06:48:51;21.30;99.90
12922;DHT22;6528;48.086;16.282;2022-08-24T06:51:19;21.40;99.90
12922;DHT22;6528;48.086;16.282;2022-08-24T06:56:17;21.60;99.90
12922;DHT22;6528;48.086;16.282;2022-08-24T06:58:44;21.80;99.90
12922;DHT22;6528;48.086;16.282;2022-08-24T07:01:20;21.80;99.90
12922;DHT22;6528;48.086;16.282;2022-08-24T07:03:47;21.80;99.90
12922;DHT22;6528;48.086;16.282;2022-08-24T07:06:14;21.80;99.90
12922;DHT22;6528;48.086;16.282;2022-08-24T07:08:41;21.80;99.90
12922;DHT22;6528;48.086;16.282;2022-08-24T07:11:09;21.80;99.90
12922;DHT22;6528;48.086;16.282;2022-08-24T07:13:37;21.80;99.90
12922;DHT22;6528;48.086;16.282;2022-08-24T07:16:04;21.80;99.90
12922;DHT22;6528;48.086;16.282;2022-08-24T07:18:31;21.70;99.90
12922;DHT22;6528;48.086;16.282;2022-08-24T07:21:02;21.70;99.90
12922;DHT22;6528;48.086;16.282;2022-08-24T07:23:29;21.60;99.90
12922;DHT22;6528;48.086;16.282;2022-08-24T07:26:10;21.80;99.90
12922;DHT22;6528;48.086;16.282;2022-08-24T07:28:51;22.00;99.90
12922;DHT22;6528;48.086;16.282;2022-08-24T07:31:18;22.30;99.90
12922;DHT22;6528;48.086;16.282;2022-08-24T07:33:45;22.60;99.90
12922;DHT22;6528;48.086;16.282;2022-08-24T07:36:12;22.90;99.90
12922;DHT22;6528;48.086;16.282;2022-08-24T07:38:48;23.10;99.90
12922;DHT22;6528;48.086;16.282;2022-08-24T07:41:19;23.40;99.90
12922;DHT22;6528;48.086;16.282;2022-08-24T07:44:07;23.80;99.90
12922;DHT22;6528;48.086;16.282;2022-08-24T07:46:34;24.40;99.90
12922;DHT22;6528;48.086;16.282;2022-08-24T07:49:01;25.10;99.90
12922;DHT22;6528;48.086;16.282;2022-08-24T07:51:38;25.90;99.90
12922;DHT22;6528;48.086;16.282;2022-08-24T07:54:12;26.20;99.90
12922;DHT22;6528;48.086;16.282;2022-08-24T07:56:40;26.30;99.90
12922;DHT22;6528;48.086;16.282;2022-08-24T07:59:08;26.00;99.90
12922;DHT22;6528;48.086;16.282;2022-08-24T08:01:39;25.90;99.90
12922;DHT22;6528;48.086;16.282;2022-08-24T08:04:07;25.70;99.90
12922;DHT22;6528;48.086;16.282;2022-08-24T08:06:35;25.60;99.90
12922;DHT22;6528;48.086;16.282;2022-08-24T08:09:03;25.80;99.90
12922;DHT22;6528;48.086;16.282;2022-08-24T08:11:31;26.10;99.90
12922;DHT22;6528;48.086;16.282;2022-08-24T08:13:58;26.20;99.90
12922;DHT22;6528;48.086;16.282;2022-08-24T08:16:25;26.10;99.90
12922;DHT22;6528;48.086;16.282;2022-08-24T08:18:53;26.40;99.90
12922;DHT22;6528;48.086;16.282;2022-08-24T08:26:53;31.50;99.90
12922;DHT22;6528;48.086;16.282;2022-08-24T08:31:47;33.90;99.90
12922;DHT22;6528;48.086;16.282;2022-08-24T08:52:54;36.10;99.90
12922;DHT22;6528;48.086;16.282;2022-08-24T08:55:39;35.30;99.90
12922;DHT22;6528;48.086;16.282;2022-08-24T09:00:52;33.30;99.90
12922;DHT22;6528;48.086;16.282;2022-08-24T09:15:01;33.30;99.90
12922;DHT22;6528;48.086;16.282;2022-08-24T09:17:49;32.80;99.90
12922;DHT22;6528;48.086;16.282;2022-08-24T09:23:24;32.80;99.90
12922;DHT22;6528;48.086;16.282;2022-08-24T09:36:44;34.30;99.90
12922;DHT22;6528;48.086;16.282;2022-08-24T09:42:34;34.00;99.90
12922;DHT22;6528;48.086;16.282;2022-08-24T10:04:25;35.70;99.90
12922;DHT22;6528;48.086;16.282;2022-08-24T10:12:48;32.90;99.90
12922;DHT22;6528;48.086;16.282;2022-08-24T10:15:37;32.10;99.90
12922;DHT22;6528;48.086;16.282;2022-08-24T10:21:19;32.20;99.90
12922;DHT22;6528;48.086;16.282;2022-08-24T10:23:53;32.00;99.90
12922;DHT22;6528;48.086;16.282;2022-08-24T10:26:39;32.60;99.90
12922;DHT22;6528;48.086;16.282;2022-08-24T11:24:23;30.00;99.90
12922;DHT22;6528;48.086;16.282;2022-08-24T11:34:51;27.50;99.90
12922;DHT22;6528;48.086;16.282;2022-08-24T11:37:22;27.60;99.90
12922;DHT22;6528;48.086;16.282;2022-08-24T11:39:55;27.70;99.90
12922;DHT22;6528;48.086;16.282;2022-08-24T11:45:14;28.10;99.90
12922;DHT22;6528;48.086;16.282;2022-08-24T11:50:44;28.30;99.90
12922;DHT22;6528;48.086;16.282;2022-08-24T11:56:30;27.90;99.90
12922;DHT22;6528;48.086;16.282;2022-08-24T11:59:17;27.80;99.90
12922;DHT22;6528;48.086;16.282;2022-08-24T12:01:56;27.70;99.90
12922;DHT22;6528;48.086;16.282;2022-08-24T12:16:18;27.80;99.90
12922;DHT22;6528;48.086;16.282;2022-08-24T12:21:33;27.70;99.90
12922;DHT22;6528;48.086;16.282;2022-08-24T12:24:04;27.80;99.90
12922;DHT22;6528;48.086;16.282;2022-08-24T12:26:44;28.00;99.90
12922;DHT22;6528;48.086;16.282;2022-08-24T12:31:51;27.90;99.90
12922;DHT22;6528;48.086;16.282;2022-08-24T12:34:30;27.70;99.90
12922;DHT22;6528;48.086;16.282;2022-08-24T12:42:32;27.30;99.90
12922;DHT22;6528;48.086;16.282;2022-08-24T12:45:09;27.20;99.90
12922;DHT22;6528;48.086;16.282;2022-08-24T13:01:22;26.90;99.90
12922;DHT22;6528;48.086;16.282;2022-08-24T13:04:13;26.90;99.90
12922;DHT22;6528;48.086;16.282;2022-08-24T13:06:51;27.10;99.90
12922;DHT22;6528;48.086;16.282;2022-08-24T13:11:57;27.00;99.90
12922;DHT22;6528;48.086;16.282;2022-08-24T13:14:27;26.80;99.90
12922;DHT22;6528;48.086;16.282;2022-08-24T13:19:35;26.70;99.90
12922;DHT22;6528;48.086;16.282;2022-08-24T13:32:42;27.00;99.90
12922;DHT22;6528;48.086;16.282;2022-08-24T14:07:06;26.00;99.90
12922;DHT22;6528;48.086;16.282;2022-08-24T14:15:14;26.00;99.90
12922;DHT22;6528;48.086;16.282;2022-08-24T14:21:04;26.00;99.90
12922;DHT22;6528;48.086;16.282;2022-08-24T14:37:37;26.20;99.90
12922;DHT22;6528;48.086;16.282;2022-08-24T14:40:28;26.20;99.90
12922;DHT22;6528;48.086;16.282;2022-08-24T14:43:33;26.20;99.90
12922;DHT22;6528;48.086;16.282;2022-08-24T14:46:22;26.10;99.90
12922;DHT22;6528;48.086;16.282;2022-08-24T14:49:10;26.10;99.90
12922;DHT22;6528;48.086;16.282;2022-08-24T15:08:00;25.80;99.90
12922;DHT22;6528;48.086;16.282;2022-08-24T15:10:37;25.80;99.90
12922;DHT22;6528;48.086;16.282;2022-08-24T15:13:20;25.70;99.90
12922;DHT22;6528;48.086;16.282;2022-08-24T15:15:56;25.70;99.90
12922;DHT22;6528;48.086;16.282;2022-08-24T15:29:18;25.30;99.90
12922;DHT22;6528;48.086;16.282;2022-08-24T15:32:07;25.20;99.90
12922;DHT22;6528;48.086;16.282;2022-08-24T15:37:09;25.10;99.90
12922;DHT22;6528;48.086;16.282;2022-08-24T15:39:35;25.00;99.90
12922;DHT22;6528;48.086;16.282;2022-08-24T15:42:11;25.00;99.90
12922;DHT22;6528;48.086;16.282;2022-08-24T15:44:41;25.10;99.90
12922;DHT22;6528;48.086;16.282;2022-08-24T15:47:37;25.10;1.00
12922;DHT22;6528;48.086;16.282;2022-08-24T15:50:27;25.20;3.50
12922;DHT22;6528;48.086;16.282;2022-08-24T15:53:00;25.10;1.00
12922;DHT22;6528;48.086;16.282;2022-08-24T15:55:41;25.20;1.00
12922;DHT22;6528;48.086;16.282;2022-08-24T16:00:50;25.00;99.90
12922;DHT22;6528;48.086;16.282;2022-08-24T16:06:37;24.90;99.90
12922;DHT22;6528;48.086;16.282;2022-08-24T16:11:41;24.70;99.90
12922;DHT22;6528;48.086;16.282;2022-08-24T16:14:25;24.70;99.90
12922;DHT22;6528;48.086;16.282;2022-08-24T16:16:54;24.60;99.90
12922;DHT22;6528;48.086;16.282;2022-08-24T16:19:31;24.60;99.90
12922;DHT22;6528;48.086;16.282;2022-08-24T16:22:09;24.50;99.90
12922;DHT22;6528;48.086;16.282;2022-08-24T16:24:41;24.50;99.90
12922;DHT22;6528;48.086;16.282;2022-08-24T16:27:14;24.40;99.90
12922;DHT22;6528;48.086;16.282;2022-08-24T16:29:45;24.40;99.90
12922;DHT22;6528;48.086;16.282;2022-08-24T16:32:20;24.30;99.90
12922;DHT22;6528;48.086;16.282;2022-08-24T16:37:34;24.20;99.90
12922;DHT22;6528;48.086;16.282;2022-08-24T16:42:30;24.10;99.90
12922;DHT22;6528;48.086;16.282;2022-08-24T16:44:58;24.00;99.90
12922;DHT22;6528;48.086;16.282;2022-08-24T16:49:53;23.80;99.90
12922;DHT22;6528;48.086;16.282;2022-08-24T16:54:48;23.70;99.90
12922;DHT22;6528;48.086;16.282;2022-08-24T16:57:24;23.70;99.90
12922;DHT22;6528;48.086;16.282;2022-08-24T16:59:54;23.60;99.90
12922;DHT22;6528;48.086;16.282;2022-08-24T17:02:22;23.60;99.90
12922;DHT22;6528;48.086;16.282;2022-08-24T17:04:51;23.50;99.90
12922;DHT22;6528;48.086;16.282;2022-08-24T17:07:23;23.50;99.90
12922;DHT22;6528;48.086;16.282;2022-08-24T17:09:51;23.40;99.90
12922;DHT22;6528;48.086;16.282;2022-08-24T17:12:18;23.40;99.90
12922;DHT22;6528;48.086;16.282;2022-08-24T17:14:46;23.40;99.90
12922;DHT22;6528;48.086;16.282;2022-08-24T17:17:17;23.30;99.90
12922;DHT22;6528;48.086;16.282;2022-08-24T17:19:52;23.30;99.90
12922;DHT22;6528;48.086;16.282;2022-08-24T17:22:21;23.30;99.90
12922;DHT22;6528;48.086;16.282;2022-08-24T17:24:49;23.20;99.90
12922;DHT22;6528;48.086;16.282;2022-08-24T17:27:18;23.20;99.90
12922;DHT22;6528;48.086;16.282;2022-08-24T17:29:45;23.20;99.90
12922;DHT22;6528;48.086;16.282;2022-08-24T17:32:13;23.10;99.90
12922;DHT22;6528;48.086;16.282;2022-08-24T17:34:40;23.10;99.90
12922;DHT22;6528;48.086;16.282;2022-08-24T17:37:09;23.00;99.90
12922;DHT22;6528;48.086;16.282;2022-08-24T17:39:36;23.00;99.90
12922;DHT22;6528;48.086;16.282;2022-08-24T17:44:51;22.90;99.90
12922;DHT22;6528;48.086;16.282;2022-08-24T17:47:18;22.90;99.90
12922;DHT22;6528;48.086;16.282;2022-08-24T17:49:45;22.90;99.90
12922;DHT22;6528;48.086;16.282;2022-08-24T17:52:13;22.90;99.90
12922;DHT22;6528;48.086;16.282;2022-08-24T17:54:40;22.90;99.90
12922;DHT22;6528;48.086;16.282;2022-08-24T17:57:10;22.80;99.90
12922;DHT22;6528;48.086;16.282;2022-08-24T17:59:38;22.80;99.90
12922;DHT22;6528;48.086;16.282;2022-08-24T18:02:07;22.80;99.90
12922;DHT22;6528;48.086;16.282;2022-08-24T18:04:35;22.80;99.90
12922;DHT22;6528;48.086;16.282;2022-08-24T18:09:41;22.70;99.90
12922;DHT22;6528;48.086;16.282;2022-08-24T18:12:08;22.70;99.90
12922;DHT22;6528;48.086;16.282;2022-08-24T18:14:35;22.70;99.90
12922;DHT22;6528;48.086;16.282;2022-08-24T18:17:05;22.70;99.90
12922;DHT22;6528;48.086;16.282;2022-08-24T18:19:33;22.60;99.90
12922;DHT22;6528;48.086;16.282;2022-08-24T18:22:00;22.60;99.90
12922;DHT22;6528;48.086;16.282;2022-08-24T18:24:28;22.60;99.90
12922;DHT22;6528;48.086;16.282;2022-08-24T18:27:00;22.60;99.90
12922;DHT22;6528;48.086;16.282;2022-08-24T18:29:36;22.50;99.90
12922;DHT22;6528;48.086;16.282;2022-08-24T18:32:05;22.50;99.90
12922;DHT22;6528;48.086;16.282;2022-08-24T18:34:33;22.40;99.90
12922;DHT22;6528;48.086;16.282;2022-08-24T18:37:00;22.40;99.90
12922;DHT22;6528;48.086;16.282;2022-08-24T18:39:27;22.40;99.90
12922;DHT22;6528;48.086;16.282;2022-08-24T18:41:54;22.40;99.90
12922;DHT22;6528;48.086;16.282;2022-08-24T18:44:23;22.40;99.90
12922;DHT22;6528;48.086;16.282;2022-08-24T18:46:57;22.40;99.90
12922;DHT22;6528;48.086;16.282;2022-08-24T18:49:24;22.40;99.90
12922;DHT22;6528;48.086;16.282;2022-08-24T18:51:51;22.40;99.90
12922;DHT22;6528;48.086;16.282;2022-08-24T18:54:25;22.40;99.90
12922;DHT22;6528;48.086;16.282;2022-08-24T18:56:52;22.40;99.90
12922;DHT22;6528;48.086;16.282;2022-08-24T18:59:20;22.40;99.90
12922;DHT22;6528;48.086;16.282;2022-08-24T19:01:49;22.40;99.90
12922;DHT22;6528;48.086;16.282;2022-08-24T19:04:43;22.30;99.90
12922;DHT22;6528;48.086;16.282;2022-08-24T19:07:10;22.40;99.90
12922;DHT22;6528;48.086;16.282;2022-08-24T19:09:38;22.30;99.90
12922;DHT22;6528;48.086;16.282;2022-08-24T19:12:05;22.30;99.90
12922;DHT22;6528;48.086;16.282;2022-08-24T19:14:33;22.30;1.00
12922;DHT22;6528;48.086;16.282;2022-08-24T19:16:59;22.30;1.00
12922;DHT22;6528;48.086;16.282;2022-08-24T19:19:26;22.30;1.00
12922;DHT22;6528;48.086;16.282;2022-08-24T19:21:53;22.30;99.90
12922;DHT22;6528;48.086;16.282;2022-08-24T19:24:23;22.20;99.90
12922;DHT22;6528;48.086;16.282;2022-08-24T19:26:51;22.30;99.90
12922;DHT22;6528;48.086;16.282;2022-08-24T19:29:18;22.30;99.90
12922;DHT22;6528;48.086;16.282;2022-08-24T19:32:06;22.30;99.90
12922;DHT22;6528;48.086;16.282;2022-08-24T19:34:41;22.30;99.90
12922;DHT22;6528;48.086;16.282;2022-08-24T19:37:08;22.30;99.90
12922;DHT22;6528;48.086;16.282;2022-08-24T19:39:35;22.30;99.90
12922;DHT22;6528;48.086;16.282;2022-08-24T19:42:02;22.30;99.90
12922;DHT22;6528;48.086;16.282;2022-08-24T19:44:30;22.20;99.90
12922;DHT22;6528;48.086;16.282;2022-08-24T19:47:17;22.20;99.90
12922;DHT22;6528;48.086;16.282;2022-08-24T19:49:44;22.20;99.90
12922;DHT22;6528;48.086;16.282;2022-08-24T19:52:12;22.20;99.90
12922;DHT22;6528;48.086;16.282;2022-08-24T19:54:43;22.20;99.90
12922;DHT22;6528;48.086;16.282;2022-08-24T20:00:04;22.20;99.90
12922;DHT22;6528;48.086;16.282;2022-08-24T20:02:37;22.20;99.90
12922;DHT22;6528;48.086;16.282;2022-08-24T20:05:04;22.20;99.90
12922;DHT22;6528;48.086;16.282;2022-08-24T20:07:31;22.20;99.90
12922;DHT22;6528;48.086;16.282;2022-08-24T20:09:58;22.20;99.90
12922;DHT22;6528;48.086;16.282;2022-08-24T20:12:38;22.20;99.90
12922;DHT22;6528;48.086;16.282;2022-08-24T20:15:05;22.20;99.90
12922;DHT22;6528;48.086;16.282;2022-08-24T20:17:34;22.20;99.90
12922;DHT22;6528;48.086;16.282;2022-08-24T20:20:02;22.10;99.90
12922;DHT22;6528;48.086;16.282;2022-08-24T20:22:29;22.10;99.90
12922;DHT22;6528;48.086;16.282;2022-08-24T20:24:55;22.10;99.90
12922;DHT22;6528;48.086;16.282;2022-08-24T20:27:24;22.10;99.90
12922;DHT22;6528;48.086;16.282;2022-08-24T20:29:52;22.10;99.90
12922;DHT22;6528;48.086;16.282;2022-08-24T20:32:20;22.10;99.90
12922;DHT22;6528;48.086;16.282;2022-08-24T20:34:47;22.00;99.90
12922;DHT22;6528;48.086;16.282;2022-08-24T20:37:18;22.00;99.90
12922;DHT22;6528;48.086;16.282;2022-08-24T20:39:46;22.00;99.90
12922;DHT22;6528;48.086;16.282;2022-08-24T20:42:13;22.10;99.90
12922;DHT22;6528;48.086;16.282;2022-08-24T20:44:47;22.10;99.90
12922;DHT22;6528;48.086;16.282;2022-08-24T20:47:14;22.10;99.90
12922;DHT22;6528;48.086;16.282;2022-08-24T20:49:42;22.10;99.90
12922;DHT22;6528;48.086;16.282;2022-08-24T20:52:08;22.10;99.90
12922;DHT22;6528;48.086;16.282;2022-08-24T20:54:36;22.10;99.90
12922;DHT22;6528;48.086;16.282;2022-08-24T20:57:07;22.10;99.90
12922;DHT22;6528;48.086;16.282;2022-08-24T20:59:34;22.10;99.90
12922;DHT22;6528;48.086;16.282;2022-08-24T21:02:02;22.10;99.90
12922;DHT22;6528;48.086;16.282;2022-08-24T21:04:29;22.10;99.90
12922;DHT22;6528;48.086;16.282;2022-08-24T21:06:56;22.10;99.90
12922;DHT22;6528;48.086;16.282;2022-08-24T21:09:23;22.00;99.90
12922;DHT22;6528;48.086;16.282;2022-08-24T21:11:50;22.00;99.90
12922;DHT22;6528;48.086;16.282;2022-08-24T21:14:17;22.00;99.90